Time,TemperatureF,DewpointF,PressureIn,WindDirection,WindDirectionDegrees,WindSpeedMPH,WindSpeedGustMPH,Humidity,HourlyPrecipIn,Conditions,Clouds,dailyrainin,SoftwareType,DateUTC
2013-12-24 00:11:00,41.0,40.0,30.54,East,90,0.0,0.0,97,0.00,,,0.16,,2013-12-24 08:11:00,
2013-12-24 00:21:00,42.0,41.0,30.55,ENE,68,0.0,5.0,97,0.00,,,0.16,,2013-12-24 08:21:00,
2013-12-24 00:42:00,41.0,40.0,30.55,East,80,0.0,0.0,96,0.00,,,0.16,,2013-12-24 08:42:00,
2013-12-24 00:52:00,40.0,39.0,30.54,East,81,0.0,0.0,96,0.00,,,0.16,,2013-12-24 08:52:00,
2013-12-24 01:11:00,39.0,38.0,30.54,East,94,1.0,3.0,97,0.01,,,0.17,,2013-12-24 09:11:00,
2013-12-24 01:21:00,40.0,39.0,30.54,East,83,2.0,4.0,97,0.01,,,0.17,,2013-12-24 09:21:00,
2013-12-24 01:43:00,40.0,39.0,30.55,East,101,7.0,12.0,97,0.01,,,0.17,,2013-12-24 09:43:00,
2013-12-24 01:53:00,40.0,39.0,30.55,ESE,105,6.0,12.0,97,0.01,,,0.17,,2013-12-24 09:53:00,
2013-12-24 02:12:00,40.0,39.0,30.55,East,92,7.0,12.0,97,0.00,,,0.17,,2013-12-24 10:12:00,
2013-12-24 02:23:00,40.0,39.0,30.56,ESE,106,8.0,13.0,97,0.00,,,0.17,,2013-12-24 10:23:00,
2013-12-24 02:42:00,39.0,38.0,30.56,ESE,102,8.0,13.0,97,0.00,,,0.17,,2013-12-24 10:42:00,
2013-12-24 02:52:00,39.0,38.0,30.56,East,89,8.0,15.0,97,0.00,,,0.17,,2013-12-24 10:52:00,
2013-12-24 03:11:00,39.0,38.0,30.57,ENE,72,7.0,11.0,96,0.00,,,0.17,,2013-12-24 11:11:00,
2013-12-24 03:22:00,39.0,38.0,30.57,ENE,57,3.0,10.0,96,0.00,,,0.17,,2013-12-24 11:22:00,
2013-12-24 03:42:00,39.0,38.0,30.56,ESE,113,4.0,8.0,96,0.00,,,0.17,,2013-12-24 11:42:00,
2013-12-24 03:52:00,39.0,38.0,30.57,East,92,6.0,10.0,96,0.00,,,0.17,,2013-12-24 11:52:00,
2013-12-24 04:11:00,38.0,37.0,30.58,East,101,8.0,12.0,96,0.00,,,0.17,,2013-12-24 12:11:00,
2013-12-24 04:21:00,38.0,37.0,30.58,East,87,8.0,15.0,96,0.00,,,0.17,,2013-12-24 12:21:00,
2013-12-24 04:42:00,38.0,37.0,30.58,ESE,110,9.0,12.0,96,0.00,,,0.17,,2013-12-24 12:42:00,
2013-12-24 04:52:00,39.0,38.0,30.58,East,90,9.0,15.0,96,0.00,,,0.17,,2013-12-24 12:52:00,
2013-12-24 05:11:00,39.0,38.0,30.58,ENE,69,5.0,12.0,96,0.00,,,0.17,,2013-12-24 13:11:00,
2013-12-24 05:22:00,38.0,37.0,30.58,ESE,115,11.0,17.0,95,0.00,,,0.17,,2013-12-24 13:22:00,
2013-12-24 05:42:00,38.0,37.0,30.57,ESE,110,14.0,21.0,95,0.00,,,0.17,,2013-12-24 13:42:00,
2013-12-24 05:52:00,38.0,37.0,30.57,East,100,13.0,22.0,95,0.00,,,0.17,,2013-12-24 13:52:00,
2013-12-24 06:11:00,38.0,37.0,30.57,East,92,14.0,21.0,95,0.00,,,0.17,,2013-12-24 14:11:00,
2013-12-24 06:22:00,37.0,36.0,30.57,East,90,8.0,14.0,95,0.00,,,0.17,,2013-12-24 14:22:00,
2013-12-24 06:42:00,37.0,36.0,30.57,ESE,104,12.0,18.0,95,0.00,,,0.17,,2013-12-24 14:42:00,
2013-12-24 06:52:00,37.0,36.0,30.56,ESE,107,15.0,20.0,95,0.00,,,0.17,,2013-12-24 14:52:00,
2013-12-24 07:11:00,37.0,36.0,30.57,ESE,106,10.0,19.0,95,0.00,,,0.17,,2013-12-24 15:11:00,
2013-12-24 07:21:00,37.0,36.0,30.57,ESE,104,10.0,16.0,95,0.00,,,0.17,,2013-12-24 15:21:00,
2013-12-24 07:43:00,37.0,36.0,30.57,ESE,116,8.0,14.0,95,0.00,,,0.16,,2013-12-24 15:43:00,
2013-12-24 07:53:00,38.0,37.0,30.56,ESE,112,9.0,14.0,95,0.00,,,0.16,,2013-12-24 15:53:00,
2013-12-24 08:12:00,37.0,35.0,30.56,ESE,106,12.0,16.0,94,0.00,,,0.16,,2013-12-24 16:12:00,
2013-12-24 08:23:00,37.0,36.0,30.56,ESE,102,12.0,17.0,95,0.00,,,0.16,,2013-12-24 16:23:00,
2013-12-24 08:43:00,38.0,37.0,30.56,ESE,105,9.0,18.0,95,0.00,,,0.16,,2013-12-24 16:43:00,
2013-12-24 08:53:00,38.0,37.0,30.57,ENE,68,5.0,11.0,95,0.00,,,0.16,,2013-12-24 16:53:00,
2013-12-24 09:11:00,38.0,36.0,30.56,ESE,106,6.0,11.0,94,0.00,,,0.16,,2013-12-24 17:11:00,
2013-12-24 09:22:00,38.0,37.0,30.55,East,98,13.0,18.0,95,0.00,,,0.16,,2013-12-24 17:22:00,
2013-12-24 09:42:00,39.0,38.0,30.55,ESE,106,10.0,18.0,95,0.00,,,0.16,,2013-12-24 17:42:00,
2013-12-24 09:52:00,40.0,38.0,30.55,East,100,13.0,19.0,94,0.00,,,0.16,,2013-12-24 17:52:00,
2013-12-24 10:12:00,41.0,39.0,30.55,ESE,102,13.0,22.0,93,0.00,,,0.16,,2013-12-24 18:12:00,
2013-12-24 10:21:00,42.0,40.0,30.55,ENE,77,14.0,22.0,92,0.00,,,0.16,,2013-12-24 18:21:00,
2013-12-24 10:52:00,42.0,39.0,30.55,ESE,117,15.0,20.0,90,0.00,,,0.16,,2013-12-24 18:52:00,
2013-12-24 11:12:00,43.0,40.0,30.55,ESE,113,13.0,22.0,90,0.00,,,0.16,,2013-12-24 19:12:00,
2013-12-24 11:22:00,43.0,40.0,30.55,SE,131,12.0,24.0,89,0.00,,,0.16,,2013-12-24 19:22:00,
2013-12-24 11:42:00,44.0,41.0,30.54,East,101,10.0,21.0,88,0.00,,,0.16,,2013-12-24 19:42:00,
2013-12-24 11:52:00,44.0,41.0,30.54,ESE,110,10.0,17.0,88,0.00,,,0.16,,2013-12-24 19:52:00,
2013-12-24 12:12:00,45.0,42.0,30.53,East,93,11.0,18.0,88,0.00,,,0.16,,2013-12-24 20:12:00,
2013-12-24 12:22:00,46.0,43.0,30.53,ENE,63,5.0,11.0,88,0.00,,,0.16,,2013-12-24 20:22:00,
2013-12-24 12:42:00,46.0,43.0,30.53,NNW,341,1.0,8.0,89,0.00,,,0.14,,2013-12-24 20:42:00,
2013-12-24 12:52:00,46.0,43.0,30.52,NW,321,1.0,4.0,89,0.00,,,0.14,,2013-12-24 20:52:00,
2013-12-24 13:11:00,47.0,44.0,30.52,NE,48,1.0,4.0,89,0.00,,,0.14,,2013-12-24 21:11:00,
2013-12-24 13:22:00,48.0,45.0,30.51,SE,130,2.0,7.0,88,0.00,,,0.14,,2013-12-24 21:22:00,
2013-12-24 13:43:00,48.0,44.0,30.50,SE,144,2.0,6.0,87,0.00,,,0.10,,2013-12-24 21:43:00,
2013-12-24 13:53:00,49.0,45.0,30.50,ESE,113,3.0,7.0,85,0.00,,,0.10,,2013-12-24 21:53:00,
2013-12-24 14:12:00,50.0,46.0,30.49,ESE,117,1.0,5.0,86,0.00,,,0.10,,2013-12-24 22:12:00,
2013-12-24 14:23:00,49.0,44.0,30.49,ESE,114,5.0,8.0,83,0.00,,,0.05,,2013-12-24 22:23:00,
2013-12-24 14:42:00,48.0,43.0,30.49,ESE,119,4.0,8.0,82,0.00,,,0.05,,2013-12-24 22:42:00,
2013-12-24 14:53:00,49.0,44.0,30.49,SSE,151,0.0,6.0,83,0.00,,,0.05,,2013-12-24 22:53:00,
2013-12-24 15:12:00,49.0,44.0,30.49,NNW,340,4.0,8.0,83,0.00,,,0.05,,2013-12-24 23:12:00,
2013-12-24 15:21:00,49.0,44.0,30.49,NNW,346,4.0,7.0,84,0.00,,,0.03,,2013-12-24 23:21:00,
2013-12-24 15:42:00,49.0,45.0,30.49,North,354,5.0,10.0,85,0.00,,,0.03,,2013-12-24 23:42:00,
2013-12-24 15:53:00,48.0,44.0,30.49,North,8,6.0,9.0,85,0.00,,,0.03,,2013-12-24 23:53:00,
2013-12-24 16:11:00,48.0,44.0,30.49,North,6,3.0,7.0,86,0.00,,,0.03,,2013-12-25 00:11:00,
2013-12-24 16:22:00,48.0,44.0,30.49,North,360,0.0,4.0,86,0.00,,,0.01,,2013-12-25 00:22:00,
2013-12-24 16:42:00,48.0,44.0,30.49,North,351,0.0,3.0,87,0.00,,,0.01,,2013-12-25 00:42:00,
2013-12-24 16:52:00,46.0,42.0,30.49,North,360,0.0,4.0,87,0.00,,,0.01,,2013-12-25 00:52:00,
2013-12-24 17:11:00,45.0,41.0,30.49,NNE,28,0.0,3.0,87,0.00,,,0.01,,2013-12-25 01:11:00,
2013-12-24 17:21:00,44.0,41.0,30.49,NE,45,0.0,0.0,88,0.00,,,0.01,,2013-12-25 01:21:00,
2013-12-24 17:42:00,43.0,40.0,30.49,NE,45,0.0,0.0,89,0.00,,,0.01,,2013-12-25 01:42:00,
2013-12-24 17:52:00,42.0,39.0,30.48,East,81,0.0,3.0,89,0.00,,,0.01,,2013-12-25 01:52:00,
2013-12-24 18:11:00,42.0,39.0,30.47,ESE,107,6.0,10.0,90,0.00,,,0.01,,2013-12-25 02:11:00,
2013-12-24 18:22:00,42.0,40.0,30.47,ESE,121,9.0,15.0,91,0.00,,,0.01,,2013-12-25 02:22:00,
2013-12-24 18:42:00,42.0,39.0,30.47,East,92,12.0,22.0,90,0.00,,,0.01,,2013-12-25 02:42:00,
2013-12-24 18:53:00,42.0,39.0,30.47,ESE,111,12.0,20.0,88,0.00,,,0.01,,2013-12-25 02:53:00,
2013-12-24 19:11:00,42.0,39.0,30.47,ESE,110,11.0,18.0,88,0.00,,,0.01,,2013-12-25 03:11:00,
2013-12-24 19:22:00,42.0,38.0,30.47,ESE,115,13.0,20.0,86,0.00,,,0.01,,2013-12-25 03:22:00,
2013-12-24 19:43:00,42.0,38.0,30.47,SE,137,10.0,17.0,85,0.00,,,0.01,,2013-12-25 03:43:00,
2013-12-24 19:53:00,42.0,38.0,30.48,ESE,106,5.0,14.0,84,0.00,,,0.01,,2013-12-25 03:53:00,
2013-12-24 20:23:00,42.0,38.0,30.47,ESE,110,12.0,19.0,84,0.00,,,0.01,,2013-12-25 04:23:00,
2013-12-24 20:43:00,42.0,38.0,30.47,East,89,10.0,17.0,84,0.00,,,0.01,,2013-12-25 04:43:00,
2013-12-24 20:53:00,41.0,37.0,30.46,ESE,110,12.0,21.0,85,0.00,,,0.01,,2013-12-25 04:53:00,
2013-12-24 21:12:00,41.0,36.0,30.45,ESE,102,11.0,21.0,83,0.00,,,0.01,,2013-12-25 05:12:00,
2013-12-24 21:22:00,41.0,37.0,30.45,ESE,122,18.0,24.0,84,0.00,,,0.01,,2013-12-25 05:22:00,
2013-12-24 21:42:00,41.0,36.0,30.45,SE,137,17.0,24.0,83,0.00,,,0.01,,2013-12-25 05:42:00,
2013-12-24 21:53:00,41.0,36.0,30.44,ESE,102,14.0,21.0,83,0.00,,,0.01,,2013-12-25 05:53:00,
2013-12-24 22:11:00,41.0,36.0,30.44,ESE,113,18.0,25.0,83,0.00,,,0.01,,2013-12-25 06:11:00,
2013-12-24 22:22:00,41.0,36.0,30.44,ENE,76,15.0,27.0,82,0.00,,,0.01,,2013-12-25 06:22:00,
2013-12-24 22:42:00,41.0,36.0,30.43,East,97,17.0,26.0,81,0.00,,,0.01,,2013-12-25 06:42:00,
2013-12-24 22:52:00,41.0,36.0,30.42,ESE,122,16.0,28.0,81,0.00,,,0.01,,2013-12-25 06:52:00,
2013-12-24 23:12:00,41.0,36.0,30.42,East,96,19.0,27.0,81,0.00,,,0.01,,2013-12-25 07:12:00,
2013-12-24 23:21:00,41.0,36.0,30.44,SE,129,13.0,31.0,81,0.00,,,0.01,,2013-12-25 07:21:00,
2013-12-24 23:42:00,41.0,35.0,30.44,ESE,113,13.0,25.0,80,0.00,,,0.01,,2013-12-25 07:42:00,
2013-12-24 23:52:00,42.0,36.0,30.44,ESE,104,14.0,26.0,79,0.00,,,0.01,,2013-12-25 07:52:00,